Bigelow, Arkansas
Current Conditions -  °F | °C
As of 2:38 PM on Monday 22 Dec 2014 (Local Time) from KLRF Reporting Station
Overcast Overcast  
Wind Chill: 54°   Ceiling: 900
Heat Index: 54°   Visibility: 9mi
Dew Point: 54°   Wind: 5mph
Humidity: 100%   Direction: 150°SSE
Pressure: 29.56"   Gusts: NA
Location:  35°N, 92.63°W
Report Text: KLRF 222038Z AUTO 15004KT 9SM OVC009 12/12 A2956 RMK AO2 DZB2008E2028 CIG 007V009
Loading
Personal Weather Stations






























Interactive Weather Map New forecast layout! Learn more

10-Day Weather Forecast

Advertisements
Track Severe Weather on mobile